Texas General Land Office
 Texas General Land Office
 George P. Bush, Commissioner

 Oil Spill Prevention
 & Response

Texas Automated Buoy System
Real Time Ocean Observations
Supporting Oil Spill Prevention and
Response since 1995
Geochemical and Environmental Research Group

TABS Buoy F -- Texas Automated Buoy System

TABS Buoy F Conditions at 05/26/2018 01:00 UTC (05/25/2018 20:00 CDT)
28° 50.5500'N   94° 14.4960'W
AA3900 DCS - sensor depth 2m
Water Depth: 79 feet (24 meters)
Speed: 16.50 cm/s (0.32 kts) Direction: 136 °T (SE) Water Temp: 28°C (83 °F)
System Voltage: 12.3 V Signal Strength: -1.7 dB Ping Count: 140
  


IMPORTANT: Notice to Mariners


Today's Velocity Data (download)

   Date   |  Time  |   East |   North|   Speed|  Dir | WaterT |
          |  (UTC) |  (cm/s)|  (cm/s)|  (cm/s)| (°T) |  (°C)  |
==========+========+========+========+========+======+========+
05/25/2018 02:30:00   -16.04    25.29    29.95  327.6   27.8
05/25/2018 03:00:00   -14.04    23.99    27.80  329.7   27.7
05/25/2018 03:30:00   -12.88    22.82    26.20  330.6   27.7
05/25/2018 04:00:00    -8.14    19.61    21.23  337.5   27.7
05/25/2018 04:30:00    -6.62    18.95    20.07  340.7   27.7
05/25/2018 05:00:00    -8.95    19.36    21.33  335.2   27.7
05/25/2018 05:30:00    -7.74    17.85    19.46  336.6   27.6
05/25/2018 06:00:00    -8.82    15.99    18.26  331.1   27.6
05/25/2018 06:30:00    -5.41    16.38    17.25  341.7   27.6
05/25/2018 07:00:00    -4.04    15.62    16.13  345.5   27.6
05/25/2018 07:30:00    -4.38    13.92    14.59  342.5   27.6
05/25/2018 08:00:00    -0.67    12.33    12.35  356.9   27.6
05/25/2018 08:30:00     0.33    10.09    10.10    1.9   27.6
05/25/2018 09:00:00     0.89     9.77     9.81    5.2   27.6
05/25/2018 09:30:00     2.59     6.71     7.19   21.1   27.6
05/25/2018 10:00:00     3.02     4.39     5.33   34.5   27.6
05/25/2018 10:30:00     3.12     4.32     5.33   35.8   27.6
05/25/2018 11:00:00     0.38     1.08     1.14   19.4   27.5
05/25/2018 11:30:00     6.95     4.24     8.14   58.6   27.5
05/25/2018 12:00:00     8.12     5.96    10.07   53.7   27.5
05/25/2018 12:30:00     8.00     5.16     9.52   57.2   27.5
05/25/2018 13:00:00     9.11     2.39     9.42   75.3   27.5
05/25/2018 13:30:00    11.01     8.09    13.66   53.7   27.5
05/25/2018 14:00:00    11.54     5.96    12.99   62.7   27.5
05/25/2018 14:30:00    11.68     6.83    13.53   59.7   27.6
05/25/2018 15:00:00    11.72     6.54    13.42   60.8   27.6
05/25/2018 15:30:00    11.75     4.45    12.56   69.3   27.7
05/25/2018 16:00:00    12.83     6.59    14.42   62.8   27.7
05/25/2018 16:30:00    10.06     3.39    10.62   71.4   27.8
05/25/2018 17:00:00    14.47     2.51    14.69   80.2   27.8
05/25/2018 17:30:00    16.12     2.46    16.31   81.3   27.9
05/25/2018 18:00:00    17.16     1.45    17.22   85.2   28.0
05/25/2018 18:30:00    17.41     2.21    17.55   82.8   28.2
05/25/2018 19:00:00    16.24    -1.54    16.31   95.4   28.2
05/25/2018 19:30:00    14.67    -2.25    14.84   98.7   28.2
05/25/2018 20:00:00    17.17    -4.96    17.87  106.1   28.1
05/25/2018 20:30:00    15.08   -12.57    19.63  129.8   28.0
05/25/2018 21:00:00    16.02   -14.68    21.73  132.5   28.0
05/25/2018 21:30:00    17.87   -19.94    26.78  138.1   28.1
05/25/2018 22:00:00    20.71   -20.23    28.95  134.3   28.2
05/25/2018 22:30:00    18.09   -20.28    27.18  138.3   28.1
05/25/2018 22:30:00    18.09   -20.28    27.18  138.3   28.1
05/25/2018 23:00:00    12.72   -21.34    24.84  149.2   28.0
05/25/2018 23:30:00    14.79   -19.40    24.39  142.7   28.0
05/26/2018 00:00:00    12.84   -17.92    22.05  144.4   28.1
05/26/2018 00:30:00    11.70   -16.56    20.28  144.8   28.1
05/26/2018 01:00:00    11.54   -11.79    16.50  135.6   28.1



       
 

Today's Temperature - Salinity Data     (Download)


   Date   |  Time  |   Temp |   Cond |Salinity| Density|SoundVel|
          |  (UTC) |   (°C) | (ms/cm)|        | kg/m^3 |  (m/s) |
==========+========+========+========+========+========+========+
05/25/2018 02:30:00    27.75     4.63    28.31     0.00     0.00
05/25/2018 03:00:00    27.70     4.62    28.29     0.00     0.00
05/25/2018 03:30:00    27.69     4.63    28.32     0.00     0.00
05/25/2018 04:00:00    27.70     4.63    28.35     0.00     0.00
05/25/2018 04:30:00    27.67     4.63    28.35     0.00     0.00
05/25/2018 05:00:00    27.65     4.63    28.39     0.00     0.00
05/25/2018 05:30:00    27.63     4.63    28.38     0.00     0.00
05/25/2018 06:00:00    27.63     4.62    28.28     0.00     0.00
05/25/2018 06:30:00    27.62     4.61    28.22     0.00     0.00
05/25/2018 07:00:00    27.62     4.60    28.20     0.00     0.00
05/25/2018 07:30:00    27.60     4.60    28.18     0.00     0.00
05/25/2018 08:00:00    27.59     4.60    28.16     0.00     0.00
05/25/2018 08:30:00    27.57     4.59    28.12     0.00     0.00
05/25/2018 09:00:00    27.55     4.58    28.06     0.00     0.00
05/25/2018 09:30:00    27.55     4.58    28.06     0.00     0.00
05/25/2018 10:00:00    27.52     4.58    28.08     0.00     0.00
05/25/2018 10:30:00    27.55     4.59    28.14     0.00     0.00
05/25/2018 11:00:00    27.50     4.59    28.15     0.00     0.00
05/25/2018 11:30:00    27.49     4.59    28.19     0.00     0.00
05/25/2018 12:00:00    27.46     4.60    28.27     0.00     0.00
05/25/2018 12:30:00    27.50     4.61    28.33     0.00     0.00
05/25/2018 13:00:00    27.50     4.62    28.36     0.00     0.00
05/25/2018 13:30:00    27.51     4.62    28.40     0.00     0.00
05/25/2018 14:00:00    27.55     4.63    28.41     0.00     0.00
05/25/2018 14:30:00    27.57     4.63    28.43     0.00     0.00
05/25/2018 15:00:00    27.64     4.65    28.48     0.00     0.00
05/25/2018 15:30:00    27.66     4.65    28.51     0.00     0.00
05/25/2018 16:00:00    27.72     4.67    28.56     0.00     0.00
05/25/2018 16:30:00    27.80     4.68    28.58     0.00     0.00
05/25/2018 17:00:00    27.90     4.69    28.60     0.00     0.00
05/25/2018 17:30:00    28.05     4.70    28.61     0.00     0.00
05/25/2018 18:00:00    28.04     4.71    28.70     0.00     0.00
05/25/2018 18:30:00    28.27     4.73    28.66     0.00     0.00
05/25/2018 19:00:00    28.22     4.73    28.71     0.00     0.00
05/25/2018 19:30:00    28.20     4.74    28.80     0.00     0.00
05/25/2018 20:00:00    28.17     4.75    28.85     0.00     0.00
05/25/2018 20:30:00    27.97     4.75    28.97     0.00     0.00
05/25/2018 21:00:00    27.98     4.76    29.03     0.00     0.00
05/25/2018 21:30:00    28.18     4.78    29.09     0.00     0.00
05/25/2018 22:00:00    28.14     4.76    28.98     0.00     0.00
05/25/2018 22:30:00    28.05     4.76    29.02     0.00     0.00
05/25/2018 22:30:00    28.05     4.76    29.02     0.00     0.00
05/25/2018 23:00:00    28.00     4.77    29.08     0.00     0.00
05/25/2018 23:30:00    28.10     4.77    29.05     0.00     0.00
05/26/2018 00:00:00    28.16     4.79    29.14     0.00     0.00
05/26/2018 00:30:00    28.08     4.79    29.22     0.00     0.00
05/26/2018 01:00:00    28.03     4.80    29.27     0.00     0.00